createdAt,value
2018-07-05T00:01:27.001Z,19.40
2018-07-05T00:04:01.144Z,19.40
2018-07-05T00:06:34.521Z,19.40
2018-07-05T00:09:07.832Z,19.40
2018-07-05T00:11:41.312Z,19.40
2018-07-05T00:14:14.646Z,19.30
2018-07-05T00:16:48.029Z,19.30
2018-07-05T00:19:21.428Z,19.40
2018-07-05T00:21:54.732Z,19.30
2018-07-05T00:24:28.020Z,19.30
2018-07-05T00:27:01.954Z,19.30
2018-07-05T00:29:35.373Z,19.40
2018-07-05T00:32:08.804Z,19.30
2018-07-05T00:34:42.236Z,19.30
2018-07-05T00:37:15.633Z,19.30
2018-07-05T00:39:49.025Z,19.40
2018-07-05T00:42:22.405Z,19.40
2018-07-05T00:44:55.820Z,19.30
2018-07-05T00:47:29.141Z,19.30
2018-07-05T00:50:03.562Z,19.30
2018-07-05T00:52:36.872Z,19.30
2018-07-05T00:55:11.232Z,19.30
2018-07-05T00:57:44.648Z,19.40
2018-07-05T01:00:17.913Z,19.30
2018-07-05T01:02:51.237Z,19.30
2018-07-05T01:05:24.476Z,19.30
2018-07-05T01:07:57.884Z,19.30
2018-07-05T01:10:31.881Z,19.30
2018-07-05T01:13:05.285Z,19.30
2018-07-05T01:15:38.557Z,19.30
2018-07-05T01:18:11.914Z,19.30
2018-07-05T01:20:45.321Z,19.40
2018-07-05T01:23:18.700Z,19.30
2018-07-05T01:25:52.014Z,19.40
2018-07-05T01:28:25.334Z,19.30
2018-07-05T01:30:58.776Z,19.30
2018-07-05T01:33:34.322Z,19.30
2018-07-05T01:36:07.666Z,19.30
2018-07-05T01:38:41.069Z,19.30
2018-07-05T01:41:14.495Z,19.30
2018-07-05T01:43:47.859Z,19.30
2018-07-05T01:46:21.256Z,19.30
2018-07-05T01:48:54.750Z,19.30
2018-07-05T01:51:27.996Z,19.30
2018-07-05T01:54:01.987Z,19.30
2018-07-05T01:56:35.335Z,19.30
2018-07-05T01:59:08.752Z,19.30
2018-07-05T02:01:42.001Z,19.30
2018-07-05T02:04:15.372Z,19.30
2018-07-05T02:06:48.760Z,19.30
2018-07-05T02:09:22.249Z,19.30
2018-07-05T02:11:55.674Z,19.30
2018-07-05T02:14:29.155Z,19.30
2018-07-05T02:17:03.525Z,19.30
2018-07-05T02:19:36.899Z,19.30
2018-07-05T02:22:10.333Z,19.30
2018-07-05T02:24:43.699Z,19.30
2018-07-05T02:27:17.043Z,19.30
2018-07-05T02:29:50.433Z,19.30
2018-07-05T02:32:23.796Z,19.30
2018-07-05T02:34:57.188Z,19.30
2018-07-05T02:37:36.041Z,19.30
2018-07-05T02:40:09.506Z,19.30
2018-07-05T02:42:42.788Z,19.30
2018-07-05T02:45:16.132Z,19.30
2018-07-05T02:47:49.500Z,19.30
2018-07-05T02:50:22.892Z,19.30
2018-07-05T02:52:56.280Z,19.30
2018-07-05T02:55:29.685Z,19.30
2018-07-05T02:58:04.177Z,19.30
2018-07-05T03:00:37.618Z,19.30
2018-07-05T03:03:11.016Z,19.30
2018-07-05T03:05:44.618Z,19.30
2018-07-05T03:08:18.057Z,19.30
2018-07-05T03:10:51.576Z,19.30
2018-07-05T03:13:24.956Z,19.30
2018-07-05T03:15:58.200Z,19.30
2018-07-05T03:18:32.047Z,19.30
2018-07-05T03:21:05.363Z,19.30
2018-07-05T03:23:38.776Z,19.30
2018-07-05T03:26:12.288Z,19.30
2018-07-05T03:28:45.656Z,19.30
2018-07-05T03:31:19.084Z,19.30
2018-07-05T03:33:52.520Z,19.30
2018-07-05T03:36:25.820Z,19.30
2018-07-05T03:38:59.301Z,19.30
2018-07-05T03:41:33.630Z,19.30
2018-07-05T03:44:07.013Z,19.30
2018-07-05T03:46:40.993Z,19.30
2018-07-05T03:49:14.445Z,19.20
2018-07-05T03:51:47.828Z,19.30
2018-07-05T03:54:21.214Z,19.20
2018-07-05T03:56:54.588Z,19.20
2018-07-05T03:59:27.848Z,19.20
2018-07-05T04:02:02.312Z,19.20
2018-07-05T04:04:35.809Z,19.20
2018-07-05T04:07:09.143Z,19.30
2018-07-05T04:09:42.652Z,19.30
2018-07-05T04:12:16.026Z,19.20
2018-07-05T04:14:49.269Z,19.30
2018-07-05T04:17:22.678Z,19.30
2018-07-05T04:19:55.940Z,19.30
2018-07-05T04:22:29.288Z,19.30
2018-07-05T04:25:03.541Z,19.30
2018-07-05T04:27:36.944Z,19.30
2018-07-05T04:30:11.800Z,19.30
2018-07-05T04:32:45.168Z,19.30
2018-07-05T04:35:19.692Z,19.30
2018-07-05T04:37:53.136Z,19.30
2018-07-05T04:40:26.506Z,19.30
2018-07-05T04:42:59.928Z,19.30
2018-07-05T04:45:34.232Z,19.30
2018-07-05T04:48:07.598Z,19.30
2018-07-05T04:50:41.233Z,19.40
2018-07-05T04:53:14.596Z,19.50
2018-07-05T04:55:48.045Z,19.50
2018-07-05T04:58:21.400Z,19.70
2018-07-05T05:00:54.699Z,19.80
2018-07-05T05:03:27.956Z,19.90
2018-07-05T05:06:02.967Z,20.00
2018-07-05T05:08:36.375Z,20.10
2018-07-05T05:11:09.755Z,20.20
2018-07-05T05:13:43.024Z,20.20
2018-07-05T05:16:16.533Z,20.20
2018-07-05T05:18:50.013Z,20.30
2018-07-05T05:21:23.225Z,20.20
2018-07-05T05:23:56.656Z,20.20
2018-07-05T05:26:29.908Z,20.20
2018-07-05T05:29:04.287Z,20.20
2018-07-05T05:31:37.708Z,20.20
2018-07-05T05:34:11.008Z,20.20
2018-07-05T05:36:44.408Z,20.20
2018-07-05T05:39:17.921Z,20.20
2018-07-05T05:41:51.306Z,20.20
2018-07-05T05:44:24.641Z,20.20
2018-07-05T05:46:58.157Z,20.20
2018-07-05T05:49:31.544Z,20.20
2018-07-05T05:52:07.075Z,20.20
2018-07-05T05:54:40.984Z,20.20
2018-07-05T05:57:14.581Z,20.10
2018-07-05T05:59:47.988Z,20.10
2018-07-05T06:02:21.284Z,20.10
2018-07-05T06:04:54.744Z,20.10
2018-07-05T06:07:28.500Z,20.10
2018-07-05T06:10:01.787Z,20.10
2018-07-05T06:12:35.108Z,20.10
2018-07-05T06:15:08.701Z,20.10
2018-07-05T06:17:42.033Z,20.10
2018-07-05T06:20:15.416Z,20.10
2018-07-05T06:22:48.892Z,20.10
2018-07-05T06:25:22.288Z,20.00
2018-07-05T06:27:56.150Z,20.00
2018-07-05T06:30:29.611Z,20.00
2018-07-05T06:33:05.048Z,20.00
2018-07-05T06:35:38.348Z,20.00
2018-07-05T06:38:11.808Z,20.00
2018-07-05T06:40:45.382Z,20.10
2018-07-05T06:43:18.791Z,20.00
2018-07-05T06:45:52.079Z,20.10
2018-07-05T06:48:26.233Z,20.00
2018-07-05T06:50:59.710Z,20.00
2018-07-05T06:53:34.293Z,20.00
2018-07-05T06:56:07.696Z,20.00
2018-07-05T06:58:41.014Z,20.00
2018-07-05T07:01:14.461Z,20.00
2018-07-05T07:03:47.872Z,20.00
2018-07-05T07:06:21.392Z,20.00
2018-07-05T07:08:54.752Z,20.00
2018-07-05T07:11:28.147Z,20.00
2018-07-05T07:14:01.409Z,20.00
2018-07-05T07:16:34.781Z,20.00
2018-07-05T07:19:08.022Z,20.00
2018-07-05T07:21:41.376Z,19.90
2018-07-05T07:24:14.792Z,19.90
2018-07-05T07:26:48.229Z,20.00
2018-07-05T07:29:21.604Z,20.00
2018-07-05T07:31:55.094Z,19.90
2018-07-05T07:34:28.761Z,19.90
2018-07-05T07:37:02.189Z,19.90
2018-07-05T07:39:35.587Z,19.90
2018-07-05T07:42:02.761Z,19.90
2018-07-05T07:44:29.924Z,19.90
2018-07-05T07:46:57.859Z,19.90
2018-07-05T07:49:25.036Z,19.90
2018-07-05T07:51:52.221Z,19.90
2018-07-05T07:54:20.211Z,19.90
2018-07-05T07:56:47.384Z,19.90
2018-07-05T07:59:14.568Z,19.90
2018-07-05T08:01:41.740Z,19.90
2018-07-05T08:04:08.906Z,20.00
2018-07-05T08:06:36.076Z,20.00
2018-07-05T08:09:04.383Z,20.00
2018-07-05T08:11:31.572Z,20.00
2018-07-05T08:16:26.211Z,20.00
2018-07-05T08:18:53.365Z,20.00
2018-07-05T08:21:20.533Z,20.00
2018-07-05T08:23:47.708Z,20.00
2018-07-05T08:26:14.868Z,20.00
2018-07-05T08:28:42.027Z,20.00
2018-07-05T08:31:09.184Z,20.00
2018-07-05T08:33:36.344Z,20.00
2018-07-05T08:36:04.025Z,20.00
2018-07-05T08:38:31.195Z,20.00
2018-07-05T08:40:58.356Z,20.00
2018-07-05T08:43:25.573Z,20.00
2018-07-05T08:45:53.620Z,20.00
2018-07-05T08:48:20.794Z,19.90
2018-07-05T08:50:47.957Z,19.90
2018-07-05T08:53:15.136Z,19.90
2018-07-05T08:55:42.296Z,19.90
2018-07-05T08:58:09.473Z,19.90
2018-07-05T09:00:36.680Z,19.90
2018-07-05T09:03:04.696Z,19.90
2018-07-05T09:05:31.849Z,19.90
2018-07-05T09:07:59.012Z,19.90
2018-07-05T09:10:26.230Z,19.90
2018-07-05T09:12:54.363Z,19.90
2018-07-05T09:15:21.528Z,19.90
2018-07-05T09:17:48.866Z,19.90
2018-07-05T09:20:15.900Z,19.90
2018-07-05T09:22:43.080Z,19.90
2018-07-05T09:25:10.249Z,19.90
2018-07-05T09:27:37.431Z,19.90
2018-07-05T09:30:04.588Z,19.90
2018-07-05T09:32:31.767Z,19.80
2018-07-05T09:37:27.598Z,19.80
2018-07-05T09:39:54.767Z,19.80
2018-07-05T09:42:21.971Z,19.80
2018-07-05T09:44:49.140Z,19.80
2018-07-05T09:47:16.305Z,19.80
2018-07-05T09:49:43.469Z,19.80
2018-07-05T09:52:10.648Z,19.80
2018-07-05T09:54:37.819Z,19.80
2018-07-05T09:57:04.985Z,19.80
2018-07-05T09:59:32.156Z,19.80
2018-07-05T10:01:59.345Z,19.80
2018-07-05T10:04:27.196Z,19.80
2018-07-05T10:06:54.356Z,19.80
2018-07-05T10:09:21.532Z,19.80
2018-07-05T10:11:48.696Z,19.80
2018-07-05T10:14:16.371Z,19.80
2018-07-05T10:16:43.532Z,19.80
2018-07-05T10:19:10.688Z,19.80
2018-07-05T10:21:37.844Z,19.80
2018-07-05T10:24:05.006Z,19.80
2018-07-05T10:26:32.181Z,19.80
2018-07-05T10:29:05.618Z,19.80
2018-07-05T10:31:39.253Z,19.80
2018-07-05T10:34:06.425Z,19.80
2018-07-05T10:36:34.079Z,19.80
2018-07-05T10:39:01.241Z,19.80
2018-07-05T10:41:34.552Z,19.80
2018-07-05T10:44:07.976Z,19.80
2018-07-05T10:46:41.412Z,19.80
2018-07-05T10:49:14.676Z,19.80
2018-07-05T10:51:48.253Z,19.80
2018-07-05T10:54:21.636Z,19.80
2018-07-05T10:56:54.880Z,19.70
2018-07-05T10:59:28.292Z,19.70
2018-07-05T11:02:01.747Z,19.70
2018-07-05T11:04:35.151Z,19.70
2018-07-05T11:07:08.579Z,19.70
2018-07-05T11:09:41.965Z,19.70
2018-07-05T11:12:15.376Z,19.70
2018-07-05T11:14:48.839Z,19.70
2018-07-05T11:17:22.164Z,19.70
2018-07-05T11:19:56.953Z,19.70
2018-07-05T11:22:30.502Z,19.80
2018-07-05T11:25:04.969Z,19.70
2018-07-05T11:27:38.340Z,19.70
2018-07-05T11:30:11.783Z,19.70
2018-07-05T11:32:45.015Z,19.70
2018-07-05T11:35:18.432Z,19.70
2018-07-05T11:37:52.142Z,19.70
2018-07-05T11:40:25.158Z,19.70
2018-07-05T11:42:58.928Z,19.70
2018-07-05T11:45:32.236Z,19.70
2018-07-05T11:48:05.625Z,19.70
2018-07-05T11:50:39.056Z,19.70
2018-07-05T11:53:12.421Z,19.70
2018-07-05T11:55:45.896Z,19.70
2018-07-05T11:58:19.320Z,19.70
2018-07-05T12:00:52.604Z,19.70
2018-07-05T12:03:25.980Z,19.70
2018-07-05T12:05:59.419Z,19.70
2018-07-05T12:08:32.748Z,19.70
2018-07-05T12:11:06.355Z,19.70
2018-07-05T12:13:39.837Z,19.80
2018-07-05T12:16:13.228Z,19.70
2018-07-05T12:18:46.624Z,19.70
2018-07-05T12:21:19.840Z,19.70
2018-07-05T12:23:53.321Z,19.70
2018-07-05T12:26:27.261Z,19.70
2018-07-05T12:29:00.671Z,19.80
2018-07-05T12:31:34.181Z,19.70
2018-07-05T12:34:07.384Z,19.70
2018-07-05T12:36:40.750Z,19.70
2018-07-05T12:39:14.108Z,19.70
2018-07-05T12:41:47.597Z,19.70
2018-07-05T12:44:20.993Z,19.70
2018-07-05T12:46:54.420Z,19.70
2018-07-05T12:49:27.868Z,19.70
2018-07-05T12:52:01.129Z,19.70
2018-07-05T12:54:34.976Z,19.70
2018-07-05T12:59:36.556Z,19.70
2018-07-05T13:02:10.013Z,19.70
2018-07-05T13:04:43.260Z,19.70
2018-07-05T13:07:16.653Z,19.70
2018-07-05T13:09:50.020Z,19.70
2018-07-05T13:12:23.404Z,19.70
2018-07-05T13:14:57.288Z,19.70
2018-07-05T13:17:30.768Z,19.70
2018-07-05T13:20:05.552Z,19.70
2018-07-05T13:22:38.928Z,19.70
2018-07-05T13:25:12.327Z,19.70
2018-07-05T13:27:45.705Z,19.70
2018-07-05T13:30:19.068Z,19.70
2018-07-05T13:32:52.535Z,19.70
2018-07-05T13:35:26.435Z,19.70
2018-07-05T13:37:59.776Z,19.70
2018-07-05T13:40:34.173Z,19.70
2018-07-05T13:43:07.548Z,19.70
2018-07-05T13:45:40.818Z,19.70
2018-07-05T13:48:14.181Z,19.70
2018-07-05T13:50:47.632Z,19.70
2018-07-05T13:53:20.965Z,19.70
2018-07-05T13:55:54.423Z,19.70
2018-07-05T13:58:27.928Z,19.70
2018-07-05T14:01:01.333Z,19.70
2018-07-05T14:03:34.687Z,19.60
2018-07-05T14:06:07.984Z,19.60
2018-07-05T14:11:08.849Z,19.70
2018-07-05T14:13:42.224Z,19.70
2018-07-05T14:16:15.616Z,19.70
2018-07-05T14:18:49.154Z,19.70
2018-07-05T14:21:22.408Z,19.70
2018-07-05T14:23:57.063Z,19.70
2018-07-05T14:26:30.368Z,19.70
2018-07-05T14:29:04.496Z,19.70
2018-07-05T14:34:05.645Z,19.70
2018-07-05T14:36:39.072Z,19.70
2018-07-05T14:39:12.320Z,19.70
2018-07-05T14:41:45.792Z,19.70
2018-07-05T14:44:19.126Z,19.70
2018-07-05T14:46:53.324Z,19.70
2018-07-05T14:49:27.480Z,19.70
2018-07-05T14:52:00.876Z,19.70
2018-07-05T14:54:35.159Z,19.70
2018-07-05T14:57:08.588Z,19.70
2018-07-05T14:59:41.964Z,19.70
2018-07-05T15:02:15.215Z,19.70
2018-07-05T15:04:48.657Z,19.70
2018-07-05T15:07:22.117Z,19.70
2018-07-05T15:09:55.468Z,19.70
2018-07-05T15:12:29.360Z,19.70
2018-07-05T15:15:04.317Z,19.70
2018-07-05T15:17:37.616Z,19.70
2018-07-05T15:20:10.963Z,19.70
2018-07-05T15:22:44.245Z,19.70
2018-07-05T15:25:17.630Z,19.80
2018-07-05T15:27:50.984Z,19.80
2018-07-05T15:30:24.353Z,19.70
2018-07-05T15:32:57.664Z,19.70
2018-07-05T15:35:31.008Z,19.70
2018-07-05T15:38:05.172Z,19.70
2018-07-05T15:40:38.416Z,19.70
2018-07-05T15:43:11.805Z,19.70
2018-07-05T15:45:45.277Z,19.70
2018-07-05T15:48:18.596Z,19.70
2018-07-05T15:50:51.976Z,19.70
2018-07-05T15:53:25.382Z,19.70
2018-07-05T15:55:58.792Z,19.70
2018-07-05T15:58:32.256Z,19.70
2018-07-05T16:01:05.753Z,19.70
2018-07-05T16:03:39.145Z,19.70
2018-07-05T16:06:12.423Z,19.70
2018-07-05T16:08:45.868Z,19.70
2018-07-05T16:11:19.388Z,19.70
2018-07-05T16:13:52.779Z,19.80
2018-07-05T16:16:26.840Z,19.70
2018-07-05T16:19:00.108Z,19.70
2018-07-05T16:21:34.421Z,19.70
2018-07-05T16:24:07.863Z,19.70
2018-07-05T16:26:41.284Z,19.70
2018-07-05T16:31:42.016Z,19.70
2018-07-05T16:34:15.533Z,19.70
2018-07-05T16:36:48.974Z,19.70
2018-07-05T16:39:22.333Z,19.70
2018-07-05T16:41:55.781Z,19.70
2018-07-05T16:44:29.812Z,19.70
2018-07-05T16:47:04.664Z,19.70
2018-07-05T16:49:37.960Z,19.70
2018-07-05T16:52:11.296Z,19.60
2018-07-05T16:54:44.683Z,19.70
2018-07-05T16:57:17.984Z,19.70
2018-07-05T16:59:51.464Z,19.70
2018-07-05T17:02:24.938Z,19.80
2018-07-05T17:04:58.344Z,20.00
2018-07-05T17:07:31.700Z,20.10
2018-07-05T17:10:05.733Z,20.20
2018-07-05T17:12:39.144Z,20.30
2018-07-05T17:15:13.664Z,20.30
2018-07-05T17:17:47.192Z,20.30
2018-07-05T17:20:20.720Z,20.30
2018-07-05T17:22:53.996Z,20.30
2018-07-05T17:25:28.144Z,20.30
2018-07-05T17:28:01.513Z,20.30
2018-07-05T17:30:34.955Z,20.30
2018-07-05T17:33:08.329Z,20.30
2018-07-05T17:35:41.601Z,20.30
2018-07-05T17:38:15.112Z,20.30
2018-07-05T17:40:48.532Z,20.30
2018-07-05T17:43:21.959Z,20.30
2018-07-05T17:45:55.420Z,20.30
2018-07-05T17:48:29.349Z,20.30
2018-07-05T17:51:03.849Z,20.30
2018-07-05T17:53:37.158Z,20.30
2018-07-05T17:56:10.588Z,20.30
2018-07-05T17:58:43.848Z,20.30
2018-07-05T18:01:17.357Z,20.30
2018-07-05T18:03:50.781Z,20.30
2018-07-05T18:06:24.095Z,20.30
2018-07-05T18:08:58.129Z,20.30
2018-07-05T18:11:31.580Z,20.30
2018-07-05T18:14:04.971Z,20.30
2018-07-05T18:16:38.244Z,20.30
2018-07-05T18:19:11.652Z,20.30
2018-07-05T18:21:45.065Z,20.30
2018-07-05T18:24:18.496Z,20.30
2018-07-05T18:26:51.942Z,20.20
2018-07-05T18:29:25.355Z,20.20
2018-07-05T18:31:58.784Z,20.20
2018-07-05T18:34:32.170Z,20.20
2018-07-05T18:37:05.612Z,20.20
2018-07-05T18:39:38.930Z,20.20
2018-07-05T18:44:39.823Z,20.20
2018-07-05T18:47:13.261Z,20.20
2018-07-05T18:49:46.775Z,20.20
2018-07-05T18:52:20.306Z,20.20
2018-07-05T18:54:53.790Z,20.20
2018-07-05T18:57:28.719Z,20.20
2018-07-05T19:00:02.228Z,20.20
2018-07-05T19:02:35.741Z,20.20
2018-07-05T19:05:10.210Z,20.20
2018-07-05T19:07:43.580Z,20.20
2018-07-05T19:10:17.041Z,20.20
2018-07-05T19:12:50.467Z,20.20
2018-07-05T19:15:24.030Z,20.20
2018-07-05T19:17:58.627Z,20.20
2018-07-05T19:20:32.144Z,20.20
2018-07-05T19:23:05.662Z,20.10
2018-07-05T19:25:39.335Z,20.10
2018-07-05T19:28:12.817Z,20.10
2018-07-05T19:30:46.445Z,20.10
2018-07-05T19:33:20.108Z,20.10
2018-07-05T19:35:53.682Z,20.10
2018-07-05T19:38:28.749Z,20.10
2018-07-05T19:41:02.254Z,20.10
2018-07-05T19:43:35.710Z,20.20
2018-07-05T19:46:09.750Z,20.20
2018-07-05T19:48:43.212Z,20.20
2018-07-05T19:51:16.806Z,20.20
2018-07-05T19:53:50.422Z,20.20
2018-07-05T19:56:24.176Z,20.20
2018-07-05T19:58:59.066Z,20.10
2018-07-05T20:01:33.414Z,20.10
2018-07-05T20:04:07.081Z,20.10
2018-07-05T20:06:41.085Z,20.10
2018-07-05T20:09:14.675Z,20.10
2018-07-05T20:11:53.773Z,20.10
2018-07-05T20:14:28.785Z,20.10
2018-07-05T20:17:03.398Z,20.10
2018-07-05T20:19:36.939Z,20.00
2018-07-05T20:22:17.687Z,20.00
2018-07-05T20:24:51.203Z,20.00
2018-07-05T20:27:24.818Z,20.10
2018-07-05T20:29:58.501Z,20.00
2018-07-05T20:32:32.162Z,20.00
2018-07-05T20:35:05.775Z,20.00
2018-07-05T20:37:39.342Z,20.00
2018-07-05T20:40:12.917Z,20.00
2018-07-05T20:42:46.454Z,20.00
2018-07-05T20:45:20.049Z,20.00
2018-07-05T20:47:53.495Z,20.00
2018-07-05T20:50:27.733Z,20.00
2018-07-05T20:53:01.260Z,20.00
2018-07-05T20:55:34.611Z,20.00
2018-07-05T20:58:08.031Z,20.00
2018-07-05T21:00:41.565Z,20.00
2018-07-05T21:03:14.914Z,19.90
2018-07-05T21:05:48.439Z,19.90
2018-07-05T21:08:21.727Z,20.00
2018-07-05T21:10:55.030Z,19.90
2018-07-05T21:13:28.520Z,19.90
2018-07-05T21:16:01.965Z,19.90
2018-07-05T21:18:36.348Z,19.90
2018-07-05T21:21:09.838Z,19.90
2018-07-05T21:23:43.328Z,19.90
2018-07-05T21:26:16.569Z,19.90
2018-07-05T21:28:49.924Z,20.00
2018-07-05T21:33:50.745Z,20.00
2018-07-05T21:36:24.536Z,19.90
2018-07-05T21:38:57.865Z,19.90
2018-07-05T21:41:31.227Z,19.90
2018-07-05T21:44:04.621Z,19.90
2018-07-05T21:46:38.390Z,19.90
2018-07-05T21:49:11.681Z,19.90
2018-07-05T21:51:45.124Z,19.90
2018-07-05T21:54:18.572Z,19.90
2018-07-05T21:56:51.937Z,19.90
2018-07-05T21:59:25.228Z,19.90
2018-07-05T22:01:58.643Z,19.90
2018-07-05T22:04:31.980Z,19.90
2018-07-05T22:07:05.849Z,19.90
2018-07-05T22:09:39.089Z,19.90
2018-07-05T22:12:12.552Z,19.90
2018-07-05T22:14:45.940Z,19.90
2018-07-05T22:17:24.972Z,19.80
2018-07-05T22:20:03.732Z,19.90
2018-07-05T22:22:42.685Z,19.90
2018-07-05T22:25:21.473Z,19.80
2018-07-05T22:28:00.492Z,19.80
2018-07-05T22:30:39.296Z,19.80
2018-07-05T22:33:12.692Z,19.90
2018-07-05T22:35:45.950Z,19.80
2018-07-05T22:38:19.405Z,19.80
2018-07-05T22:40:52.772Z,19.90
2018-07-05T22:43:26.934Z,19.80
2018-07-05T22:46:00.272Z,19.80
2018-07-05T22:48:34.861Z,19.80
2018-07-05T22:51:08.146Z,19.80
2018-07-05T22:53:42.385Z,19.80
2018-07-05T22:56:15.784Z,19.80
2018-07-05T22:58:49.071Z,19.80
2018-07-05T23:01:22.509Z,19.80
2018-07-05T23:03:57.688Z,19.80
2018-07-05T23:06:31.148Z,19.80
2018-07-05T23:09:04.888Z,19.80
2018-07-05T23:11:38.240Z,19.80
2018-07-05T23:14:11.608Z,19.80
2018-07-05T23:16:45.025Z,19.80
2018-07-05T23:19:18.415Z,19.80
2018-07-05T23:21:51.775Z,19.80
2018-07-05T23:24:25.085Z,19.80
2018-07-05T23:26:58.523Z,19.80
2018-07-05T23:29:31.824Z,19.80
2018-07-05T23:32:05.230Z,19.80
2018-07-05T23:34:38.690Z,19.80
2018-07-05T23:37:12.138Z,19.80
2018-07-05T23:39:45.564Z,19.80
2018-07-05T23:42:18.860Z,19.80
2018-07-05T23:44:52.386Z,19.70
2018-07-05T23:47:25.844Z,19.80
2018-07-05T23:49:59.108Z,19.80
2018-07-05T23:52:33.453Z,19.70
2018-07-05T23:55:06.776Z,19.80
2018-07-05T23:57:40.184Z,19.80
